sensor_id;sensor_type;location;lat;lon;timestamp;P1;durP1;ratioP1;P2;durP2;ratioP2
7025;SDS011;3554;42.132;24.786;2022-10-16T00:01:13;6.70;;;6.00;;
7025;SDS011;3554;42.132;24.786;2022-10-16T00:03:41;6.20;;;5.63;;
7025;SDS011;3554;42.132;24.786;2022-10-16T00:06:09;5.57;;;5.10;;
7025;SDS011;3554;42.132;24.786;2022-10-16T00:08:37;5.67;;;5.27;;
7025;SDS011;3554;42.132;24.786;2022-10-16T00:11:07;6.43;;;5.87;;
7025;SDS011;3554;42.132;24.786;2022-10-16T00:13:35;6.10;;;5.60;;
7025;SDS011;3554;42.132;24.786;2022-10-16T00:16:04;7.23;;;6.63;;
7025;SDS011;3554;42.132;24.786;2022-10-16T00:18:32;9.10;;;5.87;;
7025;SDS011;3554;42.132;24.786;2022-10-16T00:21:02;6.90;;;5.83;;
7025;SDS011;3554;42.132;24.786;2022-10-16T00:23:29;8.97;;;5.97;;
7025;SDS011;3554;42.132;24.786;2022-10-16T00:25:57;6.73;;;6.10;;
7025;SDS011;3554;42.132;24.786;2022-10-16T00:28:26;9.27;;;6.03;;
7025;SDS011;3554;42.132;24.786;2022-10-16T00:30:53;6.90;;;6.10;;
7025;SDS011;3554;42.132;24.786;2022-10-16T00:33:20;7.20;;;6.07;;
7025;SDS011;3554;42.132;24.786;2022-10-16T00:35:47;6.80;;;6.40;;
7025;SDS011;3554;42.132;24.786;2022-10-16T00:38:15;7.23;;;6.53;;
7025;SDS011;3554;42.132;24.786;2022-10-16T00:40:42;6.00;;;5.60;;
7025;SDS011;3554;42.132;24.786;2022-10-16T00:43:12;6.23;;;5.63;;
7025;SDS011;3554;42.132;24.786;2022-10-16T00:45:42;7.33;;;6.73;;
7025;SDS011;3554;42.132;24.786;2022-10-16T00:48:10;6.93;;;6.53;;
7025;SDS011;3554;42.132;24.786;2022-10-16T00:50:40;12.40;;;6.77;;
7025;SDS011;3554;42.132;24.786;2022-10-16T00:53:08;6.97;;;6.53;;
7025;SDS011;3554;42.132;24.786;2022-10-16T00:55:37;6.67;;;6.17;;
7025;SDS011;3554;42.132;24.786;2022-10-16T00:58:04;6.37;;;5.77;;
7025;SDS011;3554;42.132;24.786;2022-10-16T01:00:31;6.47;;;6.00;;
7025;SDS011;3554;42.132;24.786;2022-10-16T01:03:00;6.20;;;5.77;;
7025;SDS011;3554;42.132;24.786;2022-10-16T01:05:30;6.37;;;5.83;;
7025;SDS011;3554;42.132;24.786;2022-10-16T01:08:01;6.60;;;6.10;;
7025;SDS011;3554;42.132;24.786;2022-10-16T01:10:35;7.53;;;6.83;;
7025;SDS011;3554;42.132;24.786;2022-10-16T01:13:06;7.37;;;6.70;;
7025;SDS011;3554;42.132;24.786;2022-10-16T01:15:36;7.63;;;6.67;;
7025;SDS011;3554;42.132;24.786;2022-10-16T01:18:09;8.93;;;8.17;;
7025;SDS011;3554;42.132;24.786;2022-10-16T01:20:41;9.50;;;8.50;;
7025;SDS011;3554;42.132;24.786;2022-10-16T01:23:21;10.80;;;8.43;;
7025;SDS011;3554;42.132;24.786;2022-10-16T01:26:11;9.70;;;8.73;;
7025;SDS011;3554;42.132;24.786;2022-10-16T01:28:47;10.93;;;8.50;;
7025;SDS011;3554;42.132;24.786;2022-10-16T01:31:19;15.30;;;9.03;;
7025;SDS011;3554;42.132;24.786;2022-10-16T01:33:52;9.90;;;8.73;;
7025;SDS011;3554;42.132;24.786;2022-10-16T01:36:25;9.90;;;9.00;;
7025;SDS011;3554;42.132;24.786;2022-10-16T01:38:57;8.73;;;7.80;;
7025;SDS011;3554;42.132;24.786;2022-10-16T01:41:28;8.83;;;8.07;;
7025;SDS011;3554;42.132;24.786;2022-10-16T01:44:02;9.90;;;9.10;;
7025;SDS011;3554;42.132;24.786;2022-10-16T01:46:32;9.43;;;8.37;;
7025;SDS011;3554;42.132;24.786;2022-10-16T01:49:02;9.77;;;8.73;;
7025;SDS011;3554;42.132;24.786;2022-10-16T01:51:29;9.60;;;8.57;;
7025;SDS011;3554;42.132;24.786;2022-10-16T01:53:57;8.87;;;8.13;;
7025;SDS011;3554;42.132;24.786;2022-10-16T01:56:26;10.13;;;8.77;;
7025;SDS011;3554;42.132;24.786;2022-10-16T01:58:56;9.23;;;8.33;;
7025;SDS011;3554;42.132;24.786;2022-10-16T02:01:29;10.87;;;8.60;;
7025;SDS011;3554;42.132;24.786;2022-10-16T02:03:59;12.83;;;8.87;;
7025;SDS011;3554;42.132;24.786;2022-10-16T02:06:30;11.33;;;9.27;;
7025;SDS011;3554;42.132;24.786;2022-10-16T02:08:58;9.27;;;8.33;;
7025;SDS011;3554;42.132;24.786;2022-10-16T02:11:25;10.30;;;9.20;;
7025;SDS011;3554;42.132;24.786;2022-10-16T02:13:53;9.47;;;8.53;;
7025;SDS011;3554;42.132;24.786;2022-10-16T02:16:32;12.30;;;8.70;;
7025;SDS011;3554;42.132;24.786;2022-10-16T02:19:01;9.60;;;8.67;;
7025;SDS011;3554;42.132;24.786;2022-10-16T02:21:29;9.53;;;8.63;;
7025;SDS011;3554;42.132;24.786;2022-10-16T02:24:06;10.93;;;9.43;;
7025;SDS011;3554;42.132;24.786;2022-10-16T02:26:39;10.60;;;8.67;;
7025;SDS011;3554;42.132;24.786;2022-10-16T02:29:12;12.10;;;9.00;;
7025;SDS011;3554;42.132;24.786;2022-10-16T02:31:45;9.67;;;8.80;;
7025;SDS011;3554;42.132;24.786;2022-10-16T02:34:16;9.27;;;8.47;;
7025;SDS011;3554;42.132;24.786;2022-10-16T02:36:47;13.90;;;9.47;;
7025;SDS011;3554;42.132;24.786;2022-10-16T02:39:16;9.83;;;9.00;;
7025;SDS011;3554;42.132;24.786;2022-10-16T02:41:44;10.57;;;9.53;;
7025;SDS011;3554;42.132;24.786;2022-10-16T02:44:11;12.97;;;9.50;;
7025;SDS011;3554;42.132;24.786;2022-10-16T02:46:38;9.80;;;8.90;;
7025;SDS011;3554;42.132;24.786;2022-10-16T02:49:06;12.37;;;9.73;;
7025;SDS011;3554;42.132;24.786;2022-10-16T02:51:33;10.07;;;9.07;;
7025;SDS011;3554;42.132;24.786;2022-10-16T02:54:00;10.60;;;9.50;;
7025;SDS011;3554;42.132;24.786;2022-10-16T02:56:27;12.07;;;11.17;;
7025;SDS011;3554;42.132;24.786;2022-10-16T02:58:55;9.40;;;8.60;;
7025;SDS011;3554;42.132;24.786;2022-10-16T03:01:22;9.53;;;8.63;;
7025;SDS011;3554;42.132;24.786;2022-10-16T03:03:49;11.07;;;9.97;;
7025;SDS011;3554;42.132;24.786;2022-10-16T03:06:17;12.03;;;9.10;;
7025;SDS011;3554;42.132;24.786;2022-10-16T03:08:44;12.33;;;9.40;;
7025;SDS011;3554;42.132;24.786;2022-10-16T03:11:11;10.93;;;9.83;;
7025;SDS011;3554;42.132;24.786;2022-10-16T03:13:38;10.77;;;9.80;;
7025;SDS011;3554;42.132;24.786;2022-10-16T03:16:04;10.80;;;9.70;;
7025;SDS011;3554;42.132;24.786;2022-10-16T03:18:31;10.03;;;9.30;;
7025;SDS011;3554;42.132;24.786;2022-10-16T03:20:58;11.33;;;10.13;;
7025;SDS011;3554;42.132;24.786;2022-10-16T03:23:26;10.60;;;9.90;;
7025;SDS011;3554;42.132;24.786;2022-10-16T03:25:53;10.47;;;9.33;;
7025;SDS011;3554;42.132;24.786;2022-10-16T03:28:20;9.83;;;8.83;;
7025;SDS011;3554;42.132;24.786;2022-10-16T03:30:47;10.47;;;9.57;;
7025;SDS011;3554;42.132;24.786;2022-10-16T03:33:14;10.47;;;9.10;;
7025;SDS011;3554;42.132;24.786;2022-10-16T03:35:41;11.43;;;9.93;;
7025;SDS011;3554;42.132;24.786;2022-10-16T03:38:08;11.67;;;9.50;;
7025;SDS011;3554;42.132;24.786;2022-10-16T03:40:36;9.97;;;8.93;;
7025;SDS011;3554;42.132;24.786;2022-10-16T03:43:03;9.17;;;8.53;;
7025;SDS011;3554;42.132;24.786;2022-10-16T03:45:29;11.50;;;9.43;;
7025;SDS011;3554;42.132;24.786;2022-10-16T03:47:56;9.43;;;8.37;;
7025;SDS011;3554;42.132;24.786;2022-10-16T03:50:23;8.70;;;8.00;;
7025;SDS011;3554;42.132;24.786;2022-10-16T03:52:50;9.33;;;8.53;;
7025;SDS011;3554;42.132;24.786;2022-10-16T03:55:17;8.67;;;7.87;;
7025;SDS011;3554;42.132;24.786;2022-10-16T03:57:45;9.57;;;8.17;;
7025;SDS011;3554;42.132;24.786;2022-10-16T04:00:12;10.30;;;9.30;;
7025;SDS011;3554;42.132;24.786;2022-10-16T04:02:39;9.57;;;8.27;;
7025;SDS011;3554;42.132;24.786;2022-10-16T04:05:06;8.93;;;8.23;;
7025;SDS011;3554;42.132;24.786;2022-10-16T04:07:33;8.87;;;8.23;;
7025;SDS011;3554;42.132;24.786;2022-10-16T04:10:00;13.13;;;9.27;;
7025;SDS011;3554;42.132;24.786;2022-10-16T04:12:26;12.57;;;9.93;;
7025;SDS011;3554;42.132;24.786;2022-10-16T04:14:55;9.80;;;8.90;;
7025;SDS011;3554;42.132;24.786;2022-10-16T04:17:22;13.47;;;9.80;;
7025;SDS011;3554;42.132;24.786;2022-10-16T04:19:48;9.93;;;8.90;;
7025;SDS011;3554;42.132;24.786;2022-10-16T04:22:15;10.67;;;9.20;;
7025;SDS011;3554;42.132;24.786;2022-10-16T04:24:42;12.30;;;10.57;;
7025;SDS011;3554;42.132;24.786;2022-10-16T04:27:09;9.73;;;8.73;;
7025;SDS011;3554;42.132;24.786;2022-10-16T04:29:35;11.07;;;9.97;;
7025;SDS011;3554;42.132;24.786;2022-10-16T04:32:04;18.00;;;10.07;;
7025;SDS011;3554;42.132;24.786;2022-10-16T04:34:30;10.57;;;9.30;;
7025;SDS011;3554;42.132;24.786;2022-10-16T04:36:57;15.33;;;9.53;;
7025;SDS011;3554;42.132;24.786;2022-10-16T04:39:24;13.30;;;9.70;;
7025;SDS011;3554;42.132;24.786;2022-10-16T04:41:51;11.70;;;10.53;;
7025;SDS011;3554;42.132;24.786;2022-10-16T04:44:18;12.10;;;10.17;;
7025;SDS011;3554;42.132;24.786;2022-10-16T04:46:44;11.60;;;10.07;;
7025;SDS011;3554;42.132;24.786;2022-10-16T04:49:13;10.37;;;9.37;;
7025;SDS011;3554;42.132;24.786;2022-10-16T04:51:39;11.57;;;10.37;;
7025;SDS011;3554;42.132;24.786;2022-10-16T04:54:06;19.03;;;11.00;;
7025;SDS011;3554;42.132;24.786;2022-10-16T04:56:33;14.20;;;10.80;;
7025;SDS011;3554;42.132;24.786;2022-10-16T04:59:05;15.17;;;10.80;;
7025;SDS011;3554;42.132;24.786;2022-10-16T05:01:32;15.87;;;12.50;;
7025;SDS011;3554;42.132;24.786;2022-10-16T05:03:58;12.97;;;11.57;;
7025;SDS011;3554;42.132;24.786;2022-10-16T05:06:27;14.17;;;11.30;;
7025;SDS011;3554;42.132;24.786;2022-10-16T05:08:53;13.47;;;11.00;;
7025;SDS011;3554;42.132;24.786;2022-10-16T05:11:20;13.87;;;11.37;;
7025;SDS011;3554;42.132;24.786;2022-10-16T05:13:47;13.60;;;11.07;;
7025;SDS011;3554;42.132;24.786;2022-10-16T05:16:14;14.77;;;11.37;;
7025;SDS011;3554;42.132;24.786;2022-10-16T05:18:41;13.30;;;11.67;;
7025;SDS011;3554;42.132;24.786;2022-10-16T05:21:07;12.13;;;11.03;;
7025;SDS011;3554;42.132;24.786;2022-10-16T05:23:36;16.70;;;11.80;;
7025;SDS011;3554;42.132;24.786;2022-10-16T05:26:03;17.23;;;13.23;;
7025;SDS011;3554;42.132;24.786;2022-10-16T05:28:30;17.23;;;11.90;;
7025;SDS011;3554;42.132;24.786;2022-10-16T05:30:57;16.20;;;11.47;;
7025;SDS011;3554;42.132;24.786;2022-10-16T05:33:24;12.30;;;10.73;;
7025;SDS011;3554;42.132;24.786;2022-10-16T05:35:52;15.47;;;10.97;;
7025;SDS011;3554;42.132;24.786;2022-10-16T05:38:18;17.00;;;11.23;;
7025;SDS011;3554;42.132;24.786;2022-10-16T05:40:51;14.97;;;11.60;;
7025;SDS011;3554;42.132;24.786;2022-10-16T05:43:18;18.77;;;12.23;;
7025;SDS011;3554;42.132;24.786;2022-10-16T05:45:52;15.43;;;11.33;;
7025;SDS011;3554;42.132;24.786;2022-10-16T05:48:20;14.80;;;12.20;;
7025;SDS011;3554;42.132;24.786;2022-10-16T05:50:47;12.00;;;11.10;;
7025;SDS011;3554;42.132;24.786;2022-10-16T05:53:14;15.00;;;10.47;;
7025;SDS011;3554;42.132;24.786;2022-10-16T05:55:40;11.20;;;10.20;;
7025;SDS011;3554;42.132;24.786;2022-10-16T05:58:09;14.10;;;10.10;;
7025;SDS011;3554;42.132;24.786;2022-10-16T06:00:35;14.70;;;12.57;;
7025;SDS011;3554;42.132;24.786;2022-10-16T06:03:02;10.80;;;9.70;;
7025;SDS011;3554;42.132;24.786;2022-10-16T06:05:31;13.53;;;12.30;;
7025;SDS011;3554;42.132;24.786;2022-10-16T06:07:58;19.60;;;14.33;;
7025;SDS011;3554;42.132;24.786;2022-10-16T06:10:25;12.43;;;10.67;;
7025;SDS011;3554;42.132;24.786;2022-10-16T06:12:54;10.93;;;9.80;;
7025;SDS011;3554;42.132;24.786;2022-10-16T06:15:22;9.73;;;9.13;;
7025;SDS011;3554;42.132;24.786;2022-10-16T06:17:49;10.40;;;9.30;;
7025;SDS011;3554;42.132;24.786;2022-10-16T06:20:15;10.00;;;8.97;;
7025;SDS011;3554;42.132;24.786;2022-10-16T06:22:42;12.67;;;8.53;;
7025;SDS011;3554;42.132;24.786;2022-10-16T06:25:09;8.93;;;8.17;;
7025;SDS011;3554;42.132;24.786;2022-10-16T06:27:36;8.40;;;7.80;;
7025;SDS011;3554;42.132;24.786;2022-10-16T06:30:05;8.67;;;7.90;;
7025;SDS011;3554;42.132;24.786;2022-10-16T06:32:34;7.83;;;7.30;;
7025;SDS011;3554;42.132;24.786;2022-10-16T06:35:01;7.50;;;6.90;;
7025;SDS011;3554;42.132;24.786;2022-10-16T06:37:28;9.50;;;7.00;;
7025;SDS011;3554;42.132;24.786;2022-10-16T06:39:55;8.03;;;6.40;;
7025;SDS011;3554;42.132;24.786;2022-10-16T06:42:22;8.03;;;7.27;;
7025;SDS011;3554;42.132;24.786;2022-10-16T06:44:49;6.27;;;5.63;;
7025;SDS011;3554;42.132;24.786;2022-10-16T06:47:16;6.37;;;5.90;;
7025;SDS011;3554;42.132;24.786;2022-10-16T06:49:44;7.43;;;6.83;;
7025;SDS011;3554;42.132;24.786;2022-10-16T06:52:11;7.30;;;6.37;;
7025;SDS011;3554;42.132;24.786;2022-10-16T06:54:37;6.73;;;6.33;;
7025;SDS011;3554;42.132;24.786;2022-10-16T06:57:07;7.03;;;6.53;;
7025;SDS011;3554;42.132;24.786;2022-10-16T06:59:34;6.80;;;6.20;;
7025;SDS011;3554;42.132;24.786;2022-10-16T07:02:00;6.43;;;6.10;;
7025;SDS011;3554;42.132;24.786;2022-10-16T07:04:27;7.33;;;6.80;;
7025;SDS011;3554;42.132;24.786;2022-10-16T07:06:55;8.13;;;6.77;;
7025;SDS011;3554;42.132;24.786;2022-10-16T07:09:22;6.70;;;6.13;;
7025;SDS011;3554;42.132;24.786;2022-10-16T07:11:49;7.10;;;6.50;;
7025;SDS011;3554;42.132;24.786;2022-10-16T07:14:16;7.03;;;6.47;;
7025;SDS011;3554;42.132;24.786;2022-10-16T07:16:46;7.50;;;6.90;;
7025;SDS011;3554;42.132;24.786;2022-10-16T07:19:13;7.60;;;7.00;;
7025;SDS011;3554;42.132;24.786;2022-10-16T07:21:42;9.73;;;8.00;;
7025;SDS011;3554;42.132;24.786;2022-10-16T07:24:12;14.10;;;7.77;;
7025;SDS011;3554;42.132;24.786;2022-10-16T07:26:40;8.10;;;7.47;;
7025;SDS011;3554;42.132;24.786;2022-10-16T07:29:11;7.70;;;6.97;;
7025;SDS011;3554;42.132;24.786;2022-10-16T07:31:40;7.33;;;6.73;;
7025;SDS011;3554;42.132;24.786;2022-10-16T07:34:08;7.43;;;6.83;;
7025;SDS011;3554;42.132;24.786;2022-10-16T07:36:36;7.80;;;7.20;;
7025;SDS011;3554;42.132;24.786;2022-10-16T07:39:03;8.57;;;7.83;;
7025;SDS011;3554;42.132;24.786;2022-10-16T07:41:31;7.43;;;7.00;;
7025;SDS011;3554;42.132;24.786;2022-10-16T07:44:01;7.40;;;6.83;;
7025;SDS011;3554;42.132;24.786;2022-10-16T07:46:29;7.97;;;7.20;;
7025;SDS011;3554;42.132;24.786;2022-10-16T07:48:56;7.10;;;6.70;;
7025;SDS011;3554;42.132;24.786;2022-10-16T07:51:23;7.30;;;6.70;;
7025;SDS011;3554;42.132;24.786;2022-10-16T07:53:51;7.40;;;6.80;;
7025;SDS011;3554;42.132;24.786;2022-10-16T07:56:19;7.13;;;6.53;;
7025;SDS011;3554;42.132;24.786;2022-10-16T07:58:48;8.60;;;7.07;;
7025;SDS011;3554;42.132;24.786;2022-10-16T08:01:16;7.07;;;6.57;;
7025;SDS011;3554;42.132;24.786;2022-10-16T08:03:44;6.90;;;6.20;;
7025;SDS011;3554;42.132;24.786;2022-10-16T08:06:12;9.47;;;8.87;;
7025;SDS011;3554;42.132;24.786;2022-10-16T08:08:39;7.23;;;6.63;;
7025;SDS011;3554;42.132;24.786;2022-10-16T08:11:06;7.30;;;6.73;;
7025;SDS011;3554;42.132;24.786;2022-10-16T08:13:50;7.23;;;6.50;;
7025;SDS011;3554;42.132;24.786;2022-10-16T08:16:17;7.23;;;6.60;;
7025;SDS011;3554;42.132;24.786;2022-10-16T08:18:43;9.87;;;6.70;;
7025;SDS011;3554;42.132;24.786;2022-10-16T08:21:12;7.60;;;6.93;;
7025;SDS011;3554;42.132;24.786;2022-10-16T08:23:41;6.93;;;6.40;;
7025;SDS011;3554;42.132;24.786;2022-10-16T08:26:09;7.67;;;7.03;;
7025;SDS011;3554;42.132;24.786;2022-10-16T08:28:36;9.33;;;6.10;;
7025;SDS011;3554;42.132;24.786;2022-10-16T08:31:09;6.30;;;5.90;;
7025;SDS011;3554;42.132;24.786;2022-10-16T08:33:38;6.73;;;6.13;;
7025;SDS011;3554;42.132;24.786;2022-10-16T08:36:11;6.57;;;6.17;;
7025;SDS011;3554;42.132;24.786;2022-10-16T08:38:39;6.37;;;5.77;;
7025;SDS011;3554;42.132;24.786;2022-10-16T08:41:15;6.53;;;6.03;;
7025;SDS011;3554;42.132;24.786;2022-10-16T08:44:00;6.00;;;5.70;;
7025;SDS011;3554;42.132;24.786;2022-10-16T08:46:52;7.63;;;6.00;;
7025;SDS011;3554;42.132;24.786;2022-10-16T08:49:26;6.13;;;5.73;;
7025;SDS011;3554;42.132;24.786;2022-10-16T08:51:54;6.20;;;5.80;;
7025;SDS011;3554;42.132;24.786;2022-10-16T08:54:24;6.33;;;5.80;;
7025;SDS011;3554;42.132;24.786;2022-10-16T08:56:56;6.07;;;5.63;;
7025;SDS011;3554;42.132;24.786;2022-10-16T08:59:27;6.33;;;5.77;;
7025;SDS011;3554;42.132;24.786;2022-10-16T09:01:55;6.30;;;5.17;;
7025;SDS011;3554;42.132;24.786;2022-10-16T09:04:35;5.43;;;5.03;;
7025;SDS011;3554;42.132;24.786;2022-10-16T09:07:16;5.80;;;5.37;;
7025;SDS011;3554;42.132;24.786;2022-10-16T09:09:53;5.93;;;5.43;;
7025;SDS011;3554;42.132;24.786;2022-10-16T09:12:32;5.00;;;4.80;;
7025;SDS011;3554;42.132;24.786;2022-10-16T09:15:17;5.47;;;5.07;;
7025;SDS011;3554;42.132;24.786;2022-10-16T09:17:58;5.70;;;4.57;;
7025;SDS011;3554;42.132;24.786;2022-10-16T09:20:32;5.53;;;5.07;;
7025;SDS011;3554;42.132;24.786;2022-10-16T09:23:18;5.37;;;4.97;;
7025;SDS011;3554;42.132;24.786;2022-10-16T09:25:50;5.50;;;4.80;;
7025;SDS011;3554;42.132;24.786;2022-10-16T09:28:17;5.30;;;4.80;;
7025;SDS011;3554;42.132;24.786;2022-10-16T09:30:45;5.03;;;4.73;;
7025;SDS011;3554;42.132;24.786;2022-10-16T09:33:15;4.60;;;4.20;;
7025;SDS011;3554;42.132;24.786;2022-10-16T09:35:44;10.47;;;6.33;;
7025;SDS011;3554;42.132;24.786;2022-10-16T09:38:24;4.90;;;4.60;;
7025;SDS011;3554;42.132;24.786;2022-10-16T09:40:54;5.07;;;4.77;;
7025;SDS011;3554;42.132;24.786;2022-10-16T09:43:23;5.63;;;5.03;;
7025;SDS011;3554;42.132;24.786;2022-10-16T09:45:59;3.90;;;3.70;;
7025;SDS011;3554;42.132;24.786;2022-10-16T09:48:30;3.67;;;3.37;;
7025;SDS011;3554;42.132;24.786;2022-10-16T09:51:02;4.30;;;4.00;;
7025;SDS011;3554;42.132;24.786;2022-10-16T09:53:40;5.80;;;3.60;;
7025;SDS011;3554;42.132;24.786;2022-10-16T09:56:10;6.10;;;4.63;;
7025;SDS011;3554;42.132;24.786;2022-10-16T09:58:41;4.73;;;4.07;;
7025;SDS011;3554;42.132;24.786;2022-10-16T10:01:11;5.03;;;4.60;;
7025;SDS011;3554;42.132;24.786;2022-10-16T10:03:41;12.53;;;4.63;;
7025;SDS011;3554;42.132;24.786;2022-10-16T10:06:17;7.67;;;4.27;;
7025;SDS011;3554;42.132;24.786;2022-10-16T10:08:53;4.30;;;3.90;;
7025;SDS011;3554;42.132;24.786;2022-10-16T10:14:15;4.63;;;4.23;;
7025;SDS011;3554;42.132;24.786;2022-10-16T10:16:47;4.33;;;4.03;;
7025;SDS011;3554;42.132;24.786;2022-10-16T10:19:17;4.47;;;4.27;;
7025;SDS011;3554;42.132;24.786;2022-10-16T10:21:46;4.77;;;3.90;;
7025;SDS011;3554;42.132;24.786;2022-10-16T10:24:13;5.43;;;4.97;;
7025;SDS011;3554;42.132;24.786;2022-10-16T10:26:43;3.83;;;3.53;;
7025;SDS011;3554;42.132;24.786;2022-10-16T10:29:17;3.60;;;3.30;;
7025;SDS011;3554;42.132;24.786;2022-10-16T10:31:53;4.70;;;4.40;;
7025;SDS011;3554;42.132;24.786;2022-10-16T10:34:38;4.60;;;4.30;;
7025;SDS011;3554;42.132;24.786;2022-10-16T10:37:18;7.93;;;4.17;;
7025;SDS011;3554;42.132;24.786;2022-10-16T10:39:56;4.20;;;3.80;;
7025;SDS011;3554;42.132;24.786;2022-10-16T10:42:39;4.37;;;4.07;;
7025;SDS011;3554;42.132;24.786;2022-10-16T10:45:16;3.80;;;3.60;;
7025;SDS011;3554;42.132;24.786;2022-10-16T10:47:49;4.83;;;4.43;;
7025;SDS011;3554;42.132;24.786;2022-10-16T10:50:33;4.27;;;3.97;;
7025;SDS011;3554;42.132;24.786;2022-10-16T10:53:07;6.27;;;4.27;;
7025;SDS011;3554;42.132;24.786;2022-10-16T10:55:43;4.00;;;3.70;;
7025;SDS011;3554;42.132;24.786;2022-10-16T11:01:10;3.97;;;3.77;;
7025;SDS011;3554;42.132;24.786;2022-10-16T11:03:46;5.50;;;5.00;;
7025;SDS011;3554;42.132;24.786;2022-10-16T11:06:30;3.80;;;3.50;;
7025;SDS011;3554;42.132;24.786;2022-10-16T11:09:02;3.93;;;3.33;;
7025;SDS011;3554;42.132;24.786;2022-10-16T11:11:38;4.23;;;3.77;;
7025;SDS011;3554;42.132;24.786;2022-10-16T11:14:11;7.00;;;3.70;;
7025;SDS011;3554;42.132;24.786;2022-10-16T11:16:44;4.83;;;4.03;;
7025;SDS011;3554;42.132;24.786;2022-10-16T11:19:21;2.63;;;2.53;;
7025;SDS011;3554;42.132;24.786;2022-10-16T11:21:56;4.50;;;4.20;;
7025;SDS011;3554;42.132;24.786;2022-10-16T11:24:32;4.40;;;3.67;;
7025;SDS011;3554;42.132;24.786;2022-10-16T11:27:07;2.43;;;2.33;;
7025;SDS011;3554;42.132;24.786;2022-10-16T11:29:36;3.80;;;3.50;;
7025;SDS011;3554;42.132;24.786;2022-10-16T11:32:13;3.73;;;3.50;;
7025;SDS011;3554;42.132;24.786;2022-10-16T11:34:47;3.77;;;3.53;;
7025;SDS011;3554;42.132;24.786;2022-10-16T11:37:20;4.40;;;4.00;;
7025;SDS011;3554;42.132;24.786;2022-10-16T11:39:50;4.97;;;4.67;;
7025;SDS011;3554;42.132;24.786;2022-10-16T11:42:26;5.80;;;4.23;;
7025;SDS011;3554;42.132;24.786;2022-10-16T11:45:00;4.57;;;4.27;;
7025;SDS011;3554;42.132;24.786;2022-10-16T11:47:35;6.70;;;4.13;;
7025;SDS011;3554;42.132;24.786;2022-10-16T11:50:04;4.47;;;4.17;;
7025;SDS011;3554;42.132;24.786;2022-10-16T11:52:40;4.33;;;3.97;;
7025;SDS011;3554;42.132;24.786;2022-10-16T11:55:14;4.00;;;3.80;;
7025;SDS011;3554;42.132;24.786;2022-10-16T11:57:44;3.90;;;3.70;;
7025;SDS011;3554;42.132;24.786;2022-10-16T12:00:18;4.83;;;3.87;;
7025;SDS011;3554;42.132;24.786;2022-10-16T12:02:52;7.40;;;3.80;;
7025;SDS011;3554;42.132;24.786;2022-10-16T12:05:28;4.03;;;3.63;;
7025;SDS011;3554;42.132;24.786;2022-10-16T12:08:06;4.27;;;4.00;;
7025;SDS011;3554;42.132;24.786;2022-10-16T12:10:36;4.47;;;4.10;;
7025;SDS011;3554;42.132;24.786;2022-10-16T12:13:05;4.97;;;4.50;;
7025;SDS011;3554;42.132;24.786;2022-10-16T12:15:52;4.80;;;4.50;;
7025;SDS011;3554;42.132;24.786;2022-10-16T12:18:29;5.13;;;4.00;;
7025;SDS011;3554;42.132;24.786;2022-10-16T12:20:57;4.40;;;4.10;;
7025;SDS011;3554;42.132;24.786;2022-10-16T12:23:31;4.80;;;4.37;;
7025;SDS011;3554;42.132;24.786;2022-10-16T12:25:59;4.03;;;3.83;;
7025;SDS011;3554;42.132;24.786;2022-10-16T12:28:28;4.77;;;4.20;;
7025;SDS011;3554;42.132;24.786;2022-10-16T12:30:57;6.20;;;4.40;;
7025;SDS011;3554;42.132;24.786;2022-10-16T12:33:26;5.47;;;4.73;;
7025;SDS011;3554;42.132;24.786;2022-10-16T12:35:55;7.30;;;5.40;;
7025;SDS011;3554;42.132;24.786;2022-10-16T12:38:24;4.60;;;4.30;;
7025;SDS011;3554;42.132;24.786;2022-10-16T12:40:56;5.03;;;4.70;;
7025;SDS011;3554;42.132;24.786;2022-10-16T12:43:27;5.00;;;4.70;;
7025;SDS011;3554;42.132;24.786;2022-10-16T12:46:21;5.37;;;4.87;;
7025;SDS011;3554;42.132;24.786;2022-10-16T12:48:50;4.90;;;4.60;;
7025;SDS011;3554;42.132;24.786;2022-10-16T12:51:22;4.70;;;4.40;;
7025;SDS011;3554;42.132;24.786;2022-10-16T12:54:00;4.33;;;4.10;;
7025;SDS011;3554;42.132;24.786;2022-10-16T12:56:31;4.20;;;3.93;;
7025;SDS011;3554;42.132;24.786;2022-10-16T12:59:13;6.30;;;4.07;;
7025;SDS011;3554;42.132;24.786;2022-10-16T13:01:54;9.00;;;4.90;;
7025;SDS011;3554;42.132;24.786;2022-10-16T13:07:33;5.00;;;4.60;;
7025;SDS011;3554;42.132;24.786;2022-10-16T13:10:14;4.90;;;4.67;;
7025;SDS011;3554;42.132;24.786;2022-10-16T13:12:54;5.33;;;4.87;;
7025;SDS011;3554;42.132;24.786;2022-10-16T13:15:41;4.33;;;3.93;;
7025;SDS011;3554;42.132;24.786;2022-10-16T13:18:22;4.63;;;4.33;;
7025;SDS011;3554;42.132;24.786;2022-10-16T13:20:58;4.47;;;4.20;;
7025;SDS011;3554;42.132;24.786;2022-10-16T13:23:36;4.00;;;3.80;;
7025;SDS011;3554;42.132;24.786;2022-10-16T13:26:14;5.47;;;4.20;;
7025;SDS011;3554;42.132;24.786;2022-10-16T13:28:52;4.80;;;4.33;;
7025;SDS011;3554;42.132;24.786;2022-10-16T13:31:19;4.60;;;4.20;;
7025;SDS011;3554;42.132;24.786;2022-10-16T13:33:49;4.83;;;4.63;;
7025;SDS011;3554;42.132;24.786;2022-10-16T13:36:20;4.53;;;4.13;;
7025;SDS011;3554;42.132;24.786;2022-10-16T13:38:50;4.67;;;4.27;;
7025;SDS011;3554;42.132;24.786;2022-10-16T13:41:26;4.47;;;4.27;;
7025;SDS011;3554;42.132;24.786;2022-10-16T13:43:54;4.63;;;4.33;;
7025;SDS011;3554;42.132;24.786;2022-10-16T13:46:24;4.13;;;3.80;;
7025;SDS011;3554;42.132;24.786;2022-10-16T13:49:02;4.23;;;3.93;;
7025;SDS011;3554;42.132;24.786;2022-10-16T13:51:30;4.13;;;3.87;;
7025;SDS011;3554;42.132;24.786;2022-10-16T13:53:58;4.10;;;3.70;;
7025;SDS011;3554;42.132;24.786;2022-10-16T13:56:26;4.77;;;4.47;;
7025;SDS011;3554;42.132;24.786;2022-10-16T13:59:05;4.90;;;4.50;;
7025;SDS011;3554;42.132;24.786;2022-10-16T14:01:33;4.87;;;4.47;;
7025;SDS011;3554;42.132;24.786;2022-10-16T14:04:02;4.80;;;4.50;;
7025;SDS011;3554;42.132;24.786;2022-10-16T14:06:32;4.77;;;4.57;;
7025;SDS011;3554;42.132;24.786;2022-10-16T14:09:02;5.17;;;3.77;;
7025;SDS011;3554;42.132;24.786;2022-10-16T14:11:32;5.10;;;4.20;;
7025;SDS011;3554;42.132;24.786;2022-10-16T14:14:02;4.63;;;4.33;;
7025;SDS011;3554;42.132;24.786;2022-10-16T14:16:31;4.43;;;4.03;;
7025;SDS011;3554;42.132;24.786;2022-10-16T14:18:59;7.10;;;4.70;;
7025;SDS011;3554;42.132;24.786;2022-10-16T14:21:27;4.03;;;3.73;;
7025;SDS011;3554;42.132;24.786;2022-10-16T14:23:55;4.67;;;4.37;;
7025;SDS011;3554;42.132;24.786;2022-10-16T14:26:23;4.30;;;4.10;;
7025;SDS011;3554;42.132;24.786;2022-10-16T14:29:03;4.47;;;4.17;;
7025;SDS011;3554;42.132;24.786;2022-10-16T14:31:38;4.47;;;4.27;;
7025;SDS011;3554;42.132;24.786;2022-10-16T14:36:55;6.43;;;4.10;;
7025;SDS011;3554;42.132;24.786;2022-10-16T14:39:23;4.87;;;4.00;;
7025;SDS011;3554;42.132;24.786;2022-10-16T14:41:51;6.83;;;4.00;;
7025;SDS011;3554;42.132;24.786;2022-10-16T14:44:22;4.10;;;3.73;;
7025;SDS011;3554;42.132;24.786;2022-10-16T14:46:56;4.50;;;4.10;;
7025;SDS011;3554;42.132;24.786;2022-10-16T14:49:24;7.50;;;4.50;;
7025;SDS011;3554;42.132;24.786;2022-10-16T14:51:53;3.70;;;3.50;;
7025;SDS011;3554;42.132;24.786;2022-10-16T14:54:20;4.53;;;4.20;;
7025;SDS011;3554;42.132;24.786;2022-10-16T14:56:47;4.47;;;4.07;;
7025;SDS011;3554;42.132;24.786;2022-10-16T14:59:17;5.97;;;4.47;;
7025;SDS011;3554;42.132;24.786;2022-10-16T15:01:48;4.30;;;3.90;;
7025;SDS011;3554;42.132;24.786;2022-10-16T15:04:16;4.37;;;4.00;;
7025;SDS011;3554;42.132;24.786;2022-10-16T15:06:43;11.07;;;6.93;;
7025;SDS011;3554;42.132;24.786;2022-10-16T15:09:13;7.43;;;4.60;;
7025;SDS011;3554;42.132;24.786;2022-10-16T15:11:43;7.77;;;4.80;;
7025;SDS011;3554;42.132;24.786;2022-10-16T15:14:11;5.63;;;5.03;;
7025;SDS011;3554;42.132;24.786;2022-10-16T15:16:38;6.10;;;4.37;;
7025;SDS011;3554;42.132;24.786;2022-10-16T15:19:05;5.10;;;4.67;;
7025;SDS011;3554;42.132;24.786;2022-10-16T15:21:34;5.70;;;5.20;;
7025;SDS011;3554;42.132;24.786;2022-10-16T15:24:01;10.60;;;4.53;;
7025;SDS011;3554;42.132;24.786;2022-10-16T15:26:28;8.83;;;4.83;;